Time;durP1;ratioP1;P1;durP2;ratioP2;P2;SDS_P1;SDS_P2;PMS_P1;PMS_P2;Temp;Humidity;BMP_temperature;BMP_pressure;BME280_temperature;BME280_humidity;BME280_pressure;Samples;Min_cycle;Max_cycle;Signal;HPM_P1;HPM_P2
2023/05/17 00:00:57;;;;;;;5.03;2.37;;;9.00;99.90;;;;;;6187004;23;20182;-74
2023/05/17 00:03:22;;;;;;;6.43;2.50;;;8.90;99.90;;;;;;6187124;23;20364;-75
2023/05/17 00:05:48;;;;;;;4.20;2.23;;;8.90;99.90;;;;;;6187931;23;20174;-74
2023/05/17 00:08:13;;;;;;;2.93;1.73;;;9.00;99.90;;;;;;6186858;23;20146;-74
2023/05/17 00:10:39;;;;;;;2.93;1.90;;;8.90;99.90;;;;;;6186833;23;20166;-75
2023/05/17 00:13:04;;;;;;;3.13;2.10;;;8.80;99.90;;;;;;6187004;23;20449;-74
2023/05/17 00:15:30;;;;;;;3.53;2.53;;;8.80;99.90;;;;;;6187765;23;20138;-75
2023/05/17 00:17:56;;;;;;;6.03;2.20;;;8.70;99.90;;;;;;6187500;23;20167;-74
2023/05/17 00:20:21;;;;;;;5.70;1.63;;;8.80;99.90;;;;;;6190121;23;20197;-74
2023/05/17 00:22:47;;;;;;;4.50;1.87;;;8.70;99.90;;;;;;6195049;23;20844;-74
2023/05/17 00:25:13;;;;;;;4.63;1.90;;;8.60;99.90;;;;;;6144487;23;20147;-74
2023/05/17 00:27:38;;;;;;;6.23;2.23;;;8.60;99.90;;;;;;6194479;23;20135;-73
2023/05/17 00:30:05;;;;;;;6.70;2.00;;;8.60;99.90;;;;;;6168032;23;20178;-74
2023/05/17 00:32:30;;;;;;;3.90;2.50;;;8.50;99.90;;;;;;6171707;23;20137;-76
2023/05/17 00:34:56;;;;;;;3.57;2.40;;;8.50;99.90;;;;;;6169994;23;20377;-76
2023/05/17 00:37:22;;;;;;;6.30;2.60;;;8.50;99.90;;;;;;6144013;23;20217;-75
2023/05/17 00:39:47;;;;;;;6.40;2.40;;;8.50;99.90;;;;;;6189299;23;20511;-74
2023/05/17 00:42:13;;;;;;;4.27;2.53;;;8.50;99.90;;;;;;6189827;23;20139;-75
2023/05/17 00:44:40;;;;;;;4.73;2.30;;;8.50;99.90;;;;;;6163020;23;20185;-76
2023/05/17 00:47:06;;;;;;;4.00;2.20;;;8.50;99.90;;;;;;6189194;23;20362;-74
2023/05/17 00:49:32;;;;;;;9.83;2.80;;;8.50;99.90;;;;;;6162276;23;20170;-74
2023/05/17 00:51:58;;;;;;;7.60;2.40;;;8.50;99.90;;;;;;6193341;23;20469;-74
2023/05/17 00:54:25;;;;;;;6.87;2.80;;;8.50;99.90;;;;;;6168776;23;20462;-74
2023/05/17 00:56:51;;;;;;;7.60;2.70;;;8.60;99.90;;;;;;6195874;23;20417;-73
2023/05/17 00:59:17;;;;;;;4.27;2.50;;;8.60;99.90;;;;;;6169906;23;20404;-75
2023/05/17 01:01:43;;;;;;;4.73;2.93;;;8.50;99.90;;;;;;6164519;23;20414;-74
2023/05/17 01:04:11;;;;;;;6.53;2.10;;;8.50;99.90;;;;;;6165165;23;20131;-74
2023/05/17 01:06:36;;;;;;;6.40;2.53;;;8.50;99.90;;;;;;6166274;23;20433;-74
2023/05/17 01:09:04;;;;;;;7.60;3.17;;;8.40;99.90;;;;;;6164578;23;20148;-76
2023/05/17 01:11:43;;;;;;;2.90;2.00;;;8.40;99.90;;;;;;6140338;23;20155;-75
2023/05/17 01:14:40;;;;;;;4.07;1.83;;;8.30;99.90;;;;;;6140423;23;20381;-73
2023/05/17 01:17:15;;;;;;;6.63;2.70;;;8.30;99.90;;;;;;6164687;23;20398;-74
2023/05/17 01:19:52;;;;;;;6.43;2.87;;;8.20;99.90;;;;;;6166322;23;20426;-75
2023/05/17 01:22:46;;;;;;;5.03;2.30;;;8.20;99.90;;;;;;6165888;23;20645;-74
2023/05/17 01:25:48;;;;;;;3.70;2.03;;;8.20;99.90;;;;;;6140780;23;20371;-74
2023/05/17 01:28:16;;;;;;;5.67;2.40;;;8.10;99.90;;;;;;6164830;23;20370;-73
2023/05/17 01:30:44;;;;;;;5.60;2.80;;;8.10;99.90;;;;;;6177167;23;20398;-73
2023/05/17 01:33:12;;;;;;;6.70;3.20;;;8.10;99.90;;;;;;6163322;23;20629;-75
2023/05/17 01:35:40;;;;;;;7.83;3.80;;;8.10;99.90;;;;;;6164020;23;20648;-75
2023/05/17 01:38:05;;;;;;;6.27;2.83;;;8.10;99.90;;;;;;6172936;23;20391;-75
2023/05/17 01:40:35;;;;;;;4.33;2.60;;;8.10;99.90;;;;;;6150728;23;20244;-74
2023/05/17 01:43:27;;;;;;;6.17;3.40;;;8.10;99.90;;;;;;6158513;23;20162;-73
2023/05/17 01:46:06;;;;;;;5.33;2.90;;;8.00;99.90;;;;;;6156409;23;20383;-75
2023/05/17 01:48:38;;;;;;;6.30;3.07;;;8.00;99.90;;;;;;6158151;23;20835;-74
2023/05/17 01:51:05;;;;;;;6.77;2.70;;;8.00;99.90;;;;;;6157212;23;20752;-74
2023/05/17 01:53:41;;;;;;;7.03;2.83;;;8.00;99.90;;;;;;6158426;23;20402;-74
2023/05/17 01:56:10;;;;;;;5.70;2.23;;;7.90;99.90;;;;;;6157203;23;20382;-74
2023/05/17 01:58:45;;;;;;;6.53;2.97;;;7.90;99.90;;;;;;6155895;23;20359;-74
2023/05/17 02:01:13;;;;;;;5.83;2.47;;;7.90;99.90;;;;;;6157274;23;20561;-74
2023/05/17 02:03:38;;;;;;;5.83;2.90;;;7.80;99.90;;;;;;6157530;23;20418;-75
2023/05/17 02:06:04;;;;;;;4.53;3.43;;;7.80;99.90;;;;;;6158620;23;20423;-74
2023/05/17 02:08:31;;;;;;;4.00;3.30;;;7.80;99.90;;;;;;6158238;23;20132;-75
2023/05/17 02:10:56;;;;;;;8.23;3.83;;;7.80;99.90;;;;;;6156907;23;20406;-74
2023/05/17 02:13:22;;;;;;;5.90;3.13;;;7.80;99.90;;;;;;6156444;23;20143;-74
2023/05/17 02:15:47;;;;;;;3.93;2.33;;;7.80;99.90;;;;;;6158328;23;20310;-75
2023/05/17 02:18:13;;;;;;;7.77;3.27;;;7.80;99.90;;;;;;6159058;23;20144;-74
2023/05/17 02:20:39;;;;;;;4.30;3.20;;;7.80;99.90;;;;;;6156255;23;20636;-75
2023/05/17 02:23:04;;;;;;;5.20;2.90;;;7.70;99.90;;;;;;6157470;23;20162;-74
2023/05/17 02:25:30;;;;;;;5.20;3.60;;;7.70;99.90;;;;;;6158409;23;20131;-75
2023/05/17 02:27:55;;;;;;;4.90;2.93;;;7.70;99.90;;;;;;6157569;23;20135;-73
2023/05/17 02:30:21;;;;;;;6.23;3.30;;;7.70;99.90;;;;;;6156352;23;20245;-75
2023/05/17 02:32:47;;;;;;;4.43;3.30;;;7.60;99.90;;;;;;6158391;23;20576;-73
2023/05/17 02:35:13;;;;;;;5.63;3.43;;;7.60;99.90;;;;;;6158673;23;20368;-74
2023/05/17 02:37:40;;;;;;;8.80;4.50;;;7.60;99.90;;;;;;6159786;23;20136;-75
2023/05/17 02:40:08;;;;;;;7.97;5.70;;;7.50;99.90;;;;;;6156230;23;20457;-74
2023/05/17 02:42:35;;;;;;;9.93;4.67;;;7.50;99.90;;;;;;6156760;23;20151;-74
2023/05/17 02:45:00;;;;;;;6.40;3.87;;;7.50;99.90;;;;;;6158220;23;20362;-74
2023/05/17 02:47:26;;;;;;;5.53;3.87;;;7.50;99.90;;;;;;6157909;23;20363;-75
2023/05/17 02:49:51;;;;;;;7.60;4.00;;;7.50;99.90;;;;;;6157132;23;20159;-74
2023/05/17 02:52:17;;;;;;;6.70;4.07;;;7.40;99.90;;;;;;6158186;23;20214;-75
2023/05/17 02:54:43;;;;;;;3.80;2.77;;;7.40;99.90;;;;;;6156128;23;20488;-74
2023/05/17 02:57:10;;;;;;;7.10;4.23;;;7.30;99.90;;;;;;6157952;23;20355;-75
2023/05/17 02:59:35;;;;;;;7.37;4.57;;;7.30;99.90;;;;;;6157642;23;20445;-74
2023/05/17 03:02:01;;;;;;;6.90;4.00;;;7.30;99.90;;;;;;6157016;23;20677;-74
2023/05/17 03:04:27;;;;;;;11.00;4.83;;;7.30;99.90;;;;;;6157206;23;20425;-75
2023/05/17 03:06:54;;;;;;;6.73;4.80;;;7.30;99.90;;;;;;6156587;23;20505;-75
2023/05/17 03:09:20;;;;;;;8.43;4.50;;;7.30;99.90;;;;;;6156180;23;20796;-74
2023/05/17 03:11:48;;;;;;;9.73;5.10;;;7.20;99.90;;;;;;6157635;23;20379;-75
2023/05/17 03:14:19;;;;;;;12.77;4.47;;;7.20;99.90;;;;;;6158819;23;20429;-75
2023/05/17 03:16:45;;;;;;;9.67;3.73;;;7.20;99.90;;;;;;6164730;23;20450;-75
2023/05/17 03:19:12;;;;;;;9.37;5.40;;;7.20;99.90;;;;;;6156345;23;20401;-74
2023/05/17 03:21:39;;;;;;;11.60;5.67;;;7.20;99.90;;;;;;6156226;23;20435;-75
2023/05/17 03:24:05;;;;;;;10.17;5.00;;;7.20;99.90;;;;;;6156486;23;20445;-75
2023/05/17 03:26:32;;;;;;;9.57;5.10;;;7.20;99.90;;;;;;6157168;23;20800;-75
2023/05/17 03:28:58;;;;;;;7.77;4.63;;;7.20;99.90;;;;;;6155805;23;20367;-75
2023/05/17 03:31:24;;;;;;;8.57;5.27;;;7.20;99.90;;;;;;6155911;23;20449;-76
2023/05/17 03:33:50;;;;;;;11.37;5.67;;;7.20;99.90;;;;;;6156467;23;20175;-75
2023/05/17 03:36:17;;;;;;;9.67;5.23;;;7.20;99.90;;;;;;6156172;23;20409;-75
2023/05/17 03:38:42;;;;;;;8.87;5.83;;;7.20;99.90;;;;;;6155572;23;20379;-74
2023/05/17 03:41:09;;;;;;;9.43;5.63;;;7.10;99.90;;;;;;6156129;23;20175;-74
2023/05/17 03:43:34;;;;;;;9.40;5.80;;;7.10;99.90;;;;;;6159556;23;20167;-74
2023/05/17 03:46:00;;;;;;;9.83;5.90;;;7.10;99.90;;;;;;6137620;23;20380;-75
2023/05/17 03:48:28;;;;;;;16.47;5.90;;;7.10;99.90;;;;;;6137041;23;20417;-75
2023/05/17 03:50:53;;;;;;;10.50;5.80;;;7.10;99.90;;;;;;6155923;23;20406;-74
2023/05/17 03:53:19;;;;;;;13.53;6.87;;;7.10;99.90;;;;;;6139397;23;20163;-75
2023/05/17 03:55:45;;;;;;;9.20;5.53;;;7.10;99.90;;;;;;6156124;23;20148;-74
2023/05/17 03:58:11;;;;;;;12.37;6.30;;;7.20;99.90;;;;;;6154873;23;20493;-75
2023/05/17 04:00:39;;;;;;;13.10;7.60;;;7.40;99.90;;;;;;6156733;23;20431;-73
2023/05/17 04:03:11;;;;;;;18.17;6.83;;;7.50;99.90;;;;;;6140405;23;20457;-75
2023/05/17 04:05:40;;;;;;;12.13;6.70;;;7.60;99.90;;;;;;6172605;23;20379;-75
2023/05/17 04:08:06;;;;;;;14.30;5.40;;;7.70;99.90;;;;;;6168126;23;20378;-74
2023/05/17 04:10:32;;;;;;;12.17;5.10;;;7.70;99.90;;;;;;6165493;23;20399;-75
2023/05/17 04:12:57;;;;;;;10.00;6.40;;;7.70;99.90;;;;;;6166173;23;20371;-74
2023/05/17 04:15:24;;;;;;;16.03;6.50;;;7.70;99.90;;;;;;6167094;23;20144;-75
2023/05/17 04:17:49;;;;;;;10.83;5.80;;;7.70;99.90;;;;;;6141046;23;20382;-74
2023/05/17 04:20:15;;;;;;;10.80;6.10;;;7.80;99.90;;;;;;6167972;23;20266;-75
2023/05/17 04:22:41;;;;;;;13.30;6.70;;;7.90;99.90;;;;;;6140912;23;20155;-75
2023/05/17 04:25:09;;;;;;;14.67;6.73;;;8.00;99.90;;;;;;6134174;23;20427;-75
2023/05/17 04:27:37;;;;;;;12.67;7.40;;;8.10;99.90;;;;;;6134254;23;20727;-76
2023/05/17 04:30:05;;;;;;;19.10;7.43;;;8.20;99.90;;;;;;6110336;23;20399;-74
2023/05/17 04:32:32;;;;;;;14.60;6.90;;;8.30;99.90;;;;;;6111701;23;20383;-75
2023/05/17 04:34:59;;;;;;;10.17;6.50;;;8.40;99.90;;;;;;6136218;23;20391;-74
2023/05/17 04:37:26;;;;;;;12.83;7.30;;;8.50;99.90;;;;;;6135098;23;20451;-75
2023/05/17 04:39:57;;;;;;;15.40;7.80;;;8.50;99.90;;;;;;6133203;23;20419;-74
2023/05/17 04:42:25;;;;;;;11.70;7.90;;;8.60;99.90;;;;;;6111093;23;20376;-77
2023/05/17 04:44:56;;;;;;;14.17;6.97;;;8.60;99.90;;;;;;6115157;23;20531;-74
2023/05/17 04:47:23;;;;;;;10.60;6.27;;;8.70;99.90;;;;;;6088941;23;20860;-75
2023/05/17 04:49:50;;;;;;;17.43;7.53;;;8.70;99.90;;;;;;6137648;23;20423;-75
2023/05/17 04:52:16;;;;;;;12.90;5.73;;;8.70;99.90;;;;;;6087523;23;20222;-75
2023/05/17 04:54:45;;;;;;;51.63;22.23;;;8.80;99.90;;;;;;6093377;23;20374;-75
2023/05/17 04:57:10;;;;;;;20.40;7.37;;;8.80;99.90;;;;;;6172718;23;20446;-77
2023/05/17 04:59:49;;;;;;;14.20;8.83;;;8.80;99.90;;;;;;6153627;23;20427;-76
2023/05/17 05:02:15;;;;;;;14.80;8.77;;;8.90;99.90;;;;;;6151959;23;20475;-75
2023/05/17 05:04:40;;;;;;;17.90;7.73;;;8.90;99.90;;;;;;6144523;23;20375;-77
2023/05/17 05:07:08;;;;;;;17.40;7.50;;;9.10;99.90;;;;;;6145620;23;20192;-75
2023/05/17 05:09:33;;;;;;;17.20;7.57;;;9.30;99.90;;;;;;6144999;23;20399;-74
2023/05/17 05:11:59;;;;;;;19.83;8.20;;;9.40;99.90;;;;;;6169404;23;20450;-76
2023/05/17 05:14:25;;;;;;;11.03;7.00;;;9.60;99.90;;;;;;6122738;23;20167;-76
2023/05/17 05:16:51;;;;;;;17.37;7.30;;;9.80;99.90;;;;;;6174511;23;20362;-77
2023/05/17 05:19:17;;;;;;;20.17;9.43;;;9.90;99.90;;;;;;6120135;23;20186;-76
2023/05/17 05:21:46;;;;;;;12.40;7.67;;;10.20;99.90;;;;;;6173427;23;20391;-77
2023/05/17 05:24:13;;;;;;;12.60;7.27;;;10.40;99.90;;;;;;6172434;23;20641;-78
2023/05/17 05:26:40;;;;;;;18.17;8.60;;;10.50;99.90;;;;;;6124305;23;20366;-76
2023/05/17 05:29:08;;;;;;;14.77;8.20;;;10.50;99.90;;;;;;6173696;23;20379;-75
2023/05/17 05:31:34;;;;;;;18.07;9.90;;;10.60;99.90;;;;;;6148349;23;20757;-77
2023/05/17 05:34:02;;;;;;;16.23;9.40;;;10.60;99.90;;;;;;6149374;23;20367;-77
2023/05/17 05:36:28;;;;;;;10.97;7.50;;;10.50;99.90;;;;;;6125736;23;20383;-77
2023/05/17 05:38:54;;;;;;;18.47;9.67;;;10.50;99.90;;;;;;6124594;23;20442;-77
2023/05/17 05:41:20;;;;;;;23.23;10.77;;;10.40;99.90;;;;;;6173067;23;20458;-77
2023/05/17 05:43:46;;;;;;;14.87;8.30;;;10.30;99.90;;;;;;6150676;23;20394;-80
2023/05/17 05:46:13;;;;;;;12.93;8.13;;;10.10;99.90;;;;;;6178524;23;20131;-76
2023/05/17 05:48:40;;;;;;;21.37;9.77;;;10.00;99.90;;;;;;6122569;23;20379;-78
2023/05/17 05:51:07;;;;;;;14.20;7.43;;;9.90;99.90;;;;;;6172154;23;20410;-80
2023/05/17 05:53:34;;;;;;;22.80;8.97;;;9.80;99.90;;;;;;6173448;23;20385;-76
2023/05/17 05:56:00;;;;;;;17.40;10.00;;;9.80;99.90;;;;;;6148998;23;20386;-77
2023/05/17 05:58:26;;;;;;;19.50;9.77;;;9.90;99.90;;;;;;6173005;23;20403;-77
2023/05/17 06:00:52;;;;;;;14.23;9.00;;;9.90;99.90;;;;;;6148199;23;20191;-76
2023/05/17 06:03:18;;;;;;;14.33;10.00;;;9.90;99.90;;;;;;6124930;23;20394;-77
2023/05/17 06:05:44;;;;;;;14.67;11.00;;;9.90;99.90;;;;;;6180266;23;20190;-79
2023/05/17 06:08:10;;;;;;;15.63;8.80;;;9.80;99.90;;;;;;6182265;23;20583;-79
2023/05/17 06:10:39;;;;;;;14.97;9.53;;;9.90;99.90;;;;;;6154524;23;20391;-80
2023/05/17 06:13:07;;;;;;;13.27;9.33;;;10.10;99.90;;;;;;6130719;23;20371;-79
2023/05/17 06:15:32;;;;;;;15.50;10.10;;;10.20;99.90;;;;;;6153604;23;20391;-80
2023/05/17 06:17:58;;;;;;;24.73;12.60;;;10.40;99.90;;;;;;6174420;23;20144;-78
2023/05/17 06:20:24;;;;;;;23.27;11.70;;;10.60;99.90;;;;;;6172274;23;20183;-77
2023/05/17 06:22:50;;;;;;;17.90;12.80;;;10.80;99.90;;;;;;6172480;23;20151;-77
2023/05/17 06:25:15;;;;;;;20.63;13.53;;;11.10;99.90;;;;;;6174364;23;20143;-79
2023/05/17 06:27:43;;;;;;;21.47;11.67;;;11.40;99.90;;;;;;6151064;23;20147;-79
2023/05/17 06:30:09;;;;;;;30.13;14.53;;;11.40;99.90;;;;;;6126857;23;20403;-78
2023/05/17 06:32:38;;;;;;;30.37;17.73;;;11.40;99.90;;;;;;6177000;23;20403;-79
2023/05/17 06:35:06;;;;;;;23.37;14.97;;;11.50;99.90;;;;;;6176485;23;20363;-77
2023/05/17 06:37:32;;;;;;;19.43;13.37;;;11.90;99.90;;;;;;6178462;23;20386;-77
2023/05/17 06:40:05;;;;;;;25.63;14.57;;;12.40;99.90;;;;;;6153381;23;20430;-78
2023/05/17 06:42:32;;;;;;;18.03;12.17;;;12.90;99.90;;;;;;6151141;23;20438;-80
2023/05/17 06:44:58;;;;;;;21.77;13.80;;;13.10;99.90;;;;;;6174712;23;20371;-78
2023/05/17 06:47:24;;;;;;;24.53;13.40;;;13.20;95.20;;;;;;6176941;23;20453;-77
2023/05/17 06:49:50;;;;;;;15.67;11.47;;;13.30;93.20;;;;;;6177082;23;20370;-79
2023/05/17 06:52:20;;;;;;;18.03;10.70;;;13.20;91.20;;;;;;6153538;23;20414;-79
2023/05/17 06:55:02;;;;;;;22.90;10.13;;;13.30;90.20;;;;;;6177775;23;20347;-80
2023/05/17 06:57:33;;;;;;;14.37;8.83;;;13.10;81.40;;;;;;6177316;23;20374;-77
2023/05/17 06:59:59;;;;;;;19.30;9.20;;;12.80;88.20;;;;;;6125823;23;20950;-77
2023/05/17 07:02:29;;;;;;;16.20;8.93;;;12.60;83.70;;;;;;6097402;23;20431;-78
2023/05/17 07:04:56;;;;;;;13.87;7.90;;;12.50;78.80;;;;;;6097271;23;20407;-78
2023/05/17 07:07:24;;;;;;;18.87;10.30;;;12.50;83.30;;;;;;6098424;23;20458;-77
2023/05/17 07:09:50;;;;;;;11.30;7.50;;;12.50;77.70;;;;;;6095827;23;20458;-77
2023/05/17 07:12:16;;;;;;;14.73;7.90;;;12.70;79.60;;;;;;6117008;23;20162;-79
2023/05/17 07:14:53;;;;;;;14.87;6.77;;;12.90;78.40;;;;;;6072184;23;20394;-81
2023/05/17 07:17:20;;;;;;;15.63;7.83;;;13.20;73.40;;;;;;6143378;23;20379;-76
2023/05/17 07:19:49;;;;;;;13.13;6.70;;;13.50;68.60;;;;;;6119342;23;20478;-78
2023/05/17 07:22:28;;;;;;;16.20;7.10;;;13.70;62.30;;;;;;6102689;23;20387;-80
2023/05/17 07:24:55;;;;;;;10.07;6.23;;;13.60;62.20;;;;;;6136958;23;20484;-78
2023/05/17 07:27:22;;;;;;;14.40;7.17;;;13.70;62.80;;;;;;6213362;23;20384;-78
2023/05/17 07:29:49;;;;;;;11.17;5.43;;;13.80;61.50;;;;;;6188616;23;20393;-78
2023/05/17 07:32:16;;;;;;;16.00;6.70;;;13.90;59.40;;;;;;6166995;23;20404;-79
2023/05/17 07:34:46;;;;;;;12.00;7.30;;;13.90;59.80;;;;;;6189245;23;20377;-79
2023/05/17 07:37:15;;;;;;;12.83;7.80;;;13.90;61.10;;;;;;6165099;22;20440;-79
2023/05/17 07:40:22;;;;;;;11.93;6.03;;;13.90;61.50;;;;;;6190829;22;20389;-80
2023/05/17 07:42:49;;;;;;;10.87;5.37;;;14.00;61.40;;;;;;6193095;23;20436;-80
2023/05/17 07:45:15;;;;;;;8.33;5.63;;;14.20;59.00;;;;;;6169300;23;20385;-78
2023/05/17 07:47:41;;;;;;;13.03;5.37;;;14.30;58.00;;;;;;6167508;23;20369;-79
2023/05/17 07:50:21;;;;;;;14.10;6.20;;;14.20;58.30;;;;;;6192893;23;20392;-79
2023/05/17 07:52:47;;;;;;;17.93;5.00;;;14.10;58.50;;;;;;6168946;23;20377;-79
2023/05/17 07:55:15;;;;;;;13.67;4.67;;;14.10;58.40;;;;;;6193393;23;20427;-80
2023/05/17 07:57:42;;;;;;;9.90;4.70;;;13.90;57.90;;;;;;6191203;23;20407;-78
2023/05/17 08:00:11;;;;;;;14.30;4.33;;;14.00;57.50;;;;;;6217764;22;20416;-79
2023/05/17 08:02:42;;;;;;;14.00;4.57;;;14.00;56.50;;;;;;6194667;23;20370;-80
2023/05/17 08:05:12;;;;;;;8.73;3.93;;;13.90;56.80;;;;;;6158619;23;20399;-79
2023/05/17 08:07:38;;;;;;;17.70;4.90;;;13.80;56.30;;;;;;6155371;23;20414;-78
2023/05/17 08:10:06;;;;;;;8.10;3.30;;;13.60;55.10;;;;;;6156492;23;20390;-79
2023/05/17 08:12:44;;;;;;;10.27;3.33;;;13.30;55.80;;;;;;6082989;23;20374;-79
2023/05/17 08:15:11;;;;;;;10.63;3.50;;;13.20;55.50;;;;;;6154067;23;20469;-79
2023/05/17 08:17:37;;;;;;;7.03;3.07;;;13.20;55.40;;;;;;6156310;23;20359;-77
2023/05/17 08:20:06;;;;;;;8.23;2.63;;;13.50;53.20;;;;;;6129762;23;20505;-79
2023/05/17 08:22:33;;;;;;;9.83;3.50;;;13.50;52.60;;;;;;6132723;23;20423;-79
2023/05/17 08:24:59;;;;;;;13.33;4.20;;;13.60;52.40;;;;;;6131639;23;20383;-79
2023/05/17 08:27:29;;;;;;;6.97;3.93;;;13.70;52.10;;;;;;6108506;23;20391;-78
2023/05/17 08:29:56;;;;;;;8.00;2.70;;;13.60;51.50;;;;;;6133073;23;20421;-79
2023/05/17 08:32:33;;;;;;;6.20;3.00;;;13.50;51.40;;;;;;6134134;23;20382;-78
2023/05/17 08:35:01;;;;;;;7.87;2.57;;;13.60;51.40;;;;;;6109501;23;20415;-78
2023/05/17 08:37:30;;;;;;;6.73;2.63;;;13.60;51.00;;;;;;6161045;23;20385;-80
2023/05/17 08:40:01;;;;;;;7.10;2.40;;;13.50;50.10;;;;;;6161155;23;20469;-78
2023/05/17 08:42:28;;;;;;;5.90;2.80;;;13.50;49.30;;;;;;6137118;23;20377;-77
2023/05/17 08:44:55;;;;;;;10.00;2.97;;;13.40;49.60;;;;;;6159512;23;20409;-79
2023/05/17 08:47:28;;;;;;;7.73;2.10;;;13.40;49.10;;;;;;6135073;23;20386;-78
2023/05/17 08:49:59;;;;;;;7.23;2.30;;;13.30;49.50;;;;;;6210878;23;20390;-78
2023/05/17 08:52:36;;;;;;;9.73;3.10;;;13.30;49.80;;;;;;6164319;23;20366;-80
2023/05/17 08:55:06;;;;;;;9.03;2.77;;;13.40;49.80;;;;;;6139972;23;20389;-77
2023/05/17 08:57:39;;;;;;;4.97;2.13;;;13.50;49.50;;;;;;6140769;23;20397;-80
2023/05/17 09:00:15;;;;;;;8.60;2.60;;;13.70;49.50;;;;;;6162469;23;20529;-79
2023/05/17 09:03:14;;;;;;;12.10;3.10;;;13.90;49.40;;;;;;6185348;23;20433;-77
2023/05/17 09:05:46;;;;;;;6.77;2.83;;;13.80;48.40;;;;;;6174801;23;20397;-78
2023/05/17 09:08:12;;;;;;;7.57;2.73;;;13.80;48.40;;;;;;6169659;23;20373;-78
2023/05/17 09:10:40;;;;;;;6.83;2.53;;;13.50;47.30;;;;;;6218665;23;20431;-78
2023/05/17 09:13:13;;;;;;;5.77;3.10;;;13.40;48.20;;;;;;6245781;22;20360;-79
2023/05/17 09:15:43;;;;;;;7.87;2.77;;;13.50;48.20;;;;;;6194384;23;20372;-80
2023/05/17 09:18:31;;;;;;;7.80;3.10;;;13.80;48.10;;;;;;6202588;22;20370;-82
2023/05/17 09:21:40;;;;;;;10.40;4.00;;;14.10;48.10;;;;;;6193633;23;20460;-77
2023/05/17 09:24:09;;;;;;;9.97;3.30;;;14.30;48.10;;;;;;6219304;23;20377;-80
2023/05/17 09:30:29;;;;;;;8.43;2.43;;;14.30;48.10;;;;;;6180773;23;20459;-79
2023/05/17 09:32:57;;;;;;;7.40;2.23;;;14.40;47.30;;;;;;6198365;23;20429;-80
2023/05/17 09:35:29;;;;;;;6.37;2.30;;;14.40;47.10;;;;;;6193339;23;20423;-80
2023/05/17 09:38:10;;;;;;;10.87;3.33;;;14.30;46.60;;;;;;6193634;23;20385;-79
2023/05/17 09:40:45;;;;;;;11.03;2.60;;;14.20;47.00;;;;;;6217379;23;20458;-78
2023/05/17 09:43:25;;;;;;;11.80;3.20;;;14.10;47.20;;;;;;6172050;23;20377;-80
2023/05/17 09:45:59;;;;;;;10.07;2.60;;;14.10;47.70;;;;;;6169799;23;20388;-80
2023/05/17 09:48:26;;;;;;;7.93;2.53;;;14.20;47.20;;;;;;6217958;22;20392;-81
2023/05/17 09:50:59;;;;;;;7.53;2.70;;;14.40;47.30;;;;;;6243201;22;20472;-80
2023/05/17 09:53:41;;;;;;;7.40;2.13;;;14.30;47.00;;;;;;6193554;23;20409;-80
2023/05/17 09:56:10;;;;;;;7.70;2.73;;;14.30;46.70;;;;;;6218562;23;20377;-78
2023/05/17 09:58:37;;;;;;;6.80;2.70;;;14.40;47.00;;;;;;6192329;23;20395;-81
2023/05/17 10:01:07;;;;;;;9.53;2.20;;;14.50;46.60;;;;;;6243200;22;20440;-79
2023/05/17 10:03:36;;;;;;;6.17;2.30;;;14.50;45.70;;;;;;6243548;22;20357;-80
2023/05/17 10:06:10;;;;;;;8.50;2.33;;;14.50;46.10;;;;;;6191772;23;20411;-80
2023/05/17 10:08:56;;;;;;;7.80;2.87;;;14.50;45.10;;;;;;6194186;23;20377;-79
2023/05/17 10:11:41;;;;;;;5.73;2.40;;;14.50;45.30;;;;;;6192402;23;20434;-78
2023/05/17 10:14:37;;;;;;;7.17;2.10;;;14.50;44.70;;;;;;6143106;22;20379;-81
2023/05/17 10:17:04;;;;;;;5.70;2.13;;;14.70;43.50;;;;;;6192736;22;20366;-80
2023/05/17 10:19:31;;;;;;;8.63;2.27;;;14.80;43.20;;;;;;6218546;23;20452;-80
2023/05/17 10:22:02;;;;;;;9.40;2.20;;;14.80;43.80;;;;;;6193668;23;20394;-78
2023/05/17 10:25:10;;;;;;;7.70;2.60;;;15.10;43.90;;;;;;6196992;23;20496;-80
2023/05/17 10:27:58;;;;;;;13.33;2.90;;;15.50;43.50;;;;;;6172423;22;20385;-81
2023/05/17 11:09:30;;;;;;;8.33;3.07;;;16.00;43.60;;;;;;6204487;23;20434;-81
2023/05/17 11:20:50;;;;;;;4.57;2.37;;;16.20;41.70;;;;;;6237788;22;20444;-81
2023/05/17 11:23:25;;;;;;;6.80;2.63;;;16.30;41.60;;;;;;6223364;22;20446;-80
2023/05/17 12:07:11;;;;;;;7.97;3.30;;;16.50;41.10;;;;;;6229698;22;20494;-80
2023/05/17 12:33:26;;;;;;;8.33;3.33;;;16.90;40.50;;;;;;6239194;22;20495;-83
2023/05/17 12:43:24;;;;;;;;;;;;;;;;;;;;;
2023/05/17 13:10:22;;;;;;;8.63;3.47;;;17.10;39.40;;;;;;6242998;22;20431;-81
2023/05/17 13:32:04;;;;;;;5.00;2.50;;;16.60;40.60;;;;;;6228895;22;20466;-81
2023/05/17 13:34:44;;;;;;;7.33;3.10;;;16.80;39.80;;;;;;6190610;23;20370;-83
2023/05/17 13:40:46;;;;;;;5.10;2.90;;;16.70;40.10;;;;;;6242532;22;20441;-80
2023/05/17 13:50:29;;;;;;;5.33;2.83;;;16.70;38.40;;;;;;6184389;23;20425;-82
2023/05/17 14:11:31;;;;;;;7.10;2.23;;;16.50;40.60;;;;;;6243782;22;20418;-83
2023/05/17 14:40:25;;;;;;;4.77;2.30;;;16.60;39.60;;;;;;6235158;22;20452;-82
2023/05/17 14:43:02;;;;;;;8.50;2.70;;;16.50;39.80;;;;;;6176186;22;20411;-80
2023/05/17 14:46:00;;;;;;;7.83;2.30;;;16.40;40.00;;;;;;6192814;23;20397;-81
2023/05/17 14:48:55;;;;;;;12.63;2.90;;;16.40;40.20;;;;;;6148913;22;20377;-81
2023/05/17 16:17:42;;;;;;;5.50;2.17;;;16.20;39.50;;;;;;6215779;22;20452;-81
2023/05/17 16:47:11;;;;;;;4.33;2.70;;;16.40;39.40;;;;;;6247417;22;20470;-80
2023/05/17 16:56:55;;;;;;;5.63;2.80;;;16.30;39.70;;;;;;6241549;23;20451;-82
2023/05/17 17:24:38;;;;;;;6.83;3.70;;;16.30;38.80;;;;;;6164208;23;20437;-82
2023/05/17 17:42:27;;;;;;;13.20;2.77;;;17.20;38.80;;;;;;6180776;23;20449;-82
2023/05/17 17:48:33;;;;;;;7.63;3.10;;;17.70;37.30;;;;;;6239732;22;20436;-80
2023/05/17 17:56:35;;;;;;;5.67;3.10;;;18.50;36.10;;;;;;6241134;22;20434;-82
2023/05/17 19:47:43;;;;;;;12.67;4.20;;;12.60;47.90;;;;;;6184880;23;21318;-78
2023/05/17 19:50:10;;;;;;;10.80;4.30;;;12.50;48.20;;;;;;6181420;23;20426;-79
2023/05/17 19:52:36;;;;;;;9.90;4.00;;;12.40;48.50;;;;;;6133697;23;20406;-79
2023/05/17 19:55:03;;;;;;;12.10;4.23;;;12.30;48.50;;;;;;6132488;23;20402;-80
2023/05/17 19:57:30;;;;;;;7.83;3.87;;;12.30;48.80;;;;;;6156890;23;20419;-78
2023/05/17 19:59:56;;;;;;;10.97;4.13;;;12.30;48.80;;;;;;6130283;23;20395;-79
2023/05/17 20:02:22;;;;;;;9.40;3.20;;;12.20;48.90;;;;;;6180187;23;20386;-78
2023/05/17 20:04:49;;;;;;;6.73;3.60;;;12.10;49.20;;;;;;6131394;23;20139;-79
2023/05/17 20:07:16;;;;;;;10.50;4.20;;;12.10;49.50;;;;;;6179289;23;20410;-78
2023/05/17 20:09:42;;;;;;;7.93;3.83;;;12.10;49.40;;;;;;6151970;23;20391;-78
2023/05/17 20:12:09;;;;;;;9.73;4.37;;;12.20;49.40;;;;;;6176043;23;20458;-80
2023/05/17 20:14:36;;;;;;;8.47;3.70;;;12.20;49.30;;;;;;6152945;23;20366;-79
2023/05/17 20:17:02;;;;;;;10.30;3.87;;;12.00;49.50;;;;;;6177876;23;20382;-76
2023/05/17 20:19:27;;;;;;;10.57;4.43;;;12.00;49.80;;;;;;6172845;23;20405;-76
2023/05/17 20:21:53;;;;;;;15.13;4.63;;;12.00;49.90;;;;;;6153035;23;20411;-79
2023/05/17 20:24:22;;;;;;;7.87;3.70;;;11.90;50.00;;;;;;6172062;23;20202;-76
2023/05/17 20:26:48;;;;;;;14.93;4.20;;;12.00;49.60;;;;;;6173459;23;20216;-79
2023/05/17 20:29:14;;;;;;;7.70;4.37;;;12.00;49.80;;;;;;6152340;23;20403;-79
2023/05/17 20:31:42;;;;;;;13.07;3.33;;;12.00;49.90;;;;;;6178665;23;20387;-79
2023/05/17 20:34:09;;;;;;;10.30;3.77;;;11.90;50.00;;;;;;6179453;23;20359;-80
2023/05/17 20:36:44;;;;;;;9.50;3.60;;;11.80;50.10;;;;;;6177727;23;20395;-78
2023/05/17 20:39:10;;;;;;;9.60;3.40;;;11.70;50.40;;;;;;6152882;23;20407;-78
2023/05/17 20:41:36;;;;;;;10.50;3.60;;;11.70;50.40;;;;;;6177937;23;20415;-79
2023/05/17 20:44:02;;;;;;;7.83;3.70;;;11.60;50.60;;;;;;6152644;23;20438;-79
2023/05/17 20:46:29;;;;;;;8.30;2.80;;;11.50;51.00;;;;;;6128963;23;20147;-79
2023/05/17 20:48:56;;;;;;;9.30;3.60;;;11.50;51.00;;;;;;6098716;23;20235;-79
2023/05/17 20:51:23;;;;;;;10.83;3.80;;;11.40;51.10;;;;;;6097328;23;20428;-79
2023/05/17 20:53:49;;;;;;;11.20;3.70;;;11.30;51.30;;;;;;6096130;23;20391;-79
2023/05/17 20:56:16;;;;;;;10.80;3.80;;;11.30;51.50;;;;;;6096249;23;20396;-79
2023/05/17 20:58:42;;;;;;;9.70;3.60;;;11.30;51.70;;;;;;6094870;23;20172;-79
2023/05/17 21:01:08;;;;;;;8.50;3.27;;;11.20;51.90;;;;;;6118886;23;20428;-77
2023/05/17 21:03:34;;;;;;;11.67;3.60;;;11.20;52.00;;;;;;6117102;23;20149;-77
2023/05/17 21:06:00;;;;;;;8.20;4.57;;;11.10;52.10;;;;;;6070679;23;20149;-78
2023/05/17 21:08:27;;;;;;;8.53;3.20;;;11.10;52.40;;;;;;6117473;23;20185;-79
2023/05/17 21:10:54;;;;;;;10.57;4.80;;;11.00;52.40;;;;;;6043759;23;20453;-79
2023/05/17 21:13:22;;;;;;;12.90;5.20;;;11.00;52.70;;;;;;6091166;23;20837;-77
2023/05/17 21:15:48;;;;;;;11.97;3.87;;;11.00;53.10;;;;;;6092985;23;20389;-77
2023/05/17 21:18:14;;;;;;;12.40;4.37;;;10.80;53.00;;;;;;6116561;23;20408;-78
2023/05/17 21:20:39;;;;;;;14.30;5.33;;;10.80;53.10;;;;;;6162283;23;20426;-78